Time;durP1;ratioP1;P1;durP2;ratioP2;P2;SDS_P1;SDS_P2;PMS_P1;PMS_P2;Temp;Humidity;BMP_temperature;BMP_pressure;BME280_temperature;BME280_humidity;BME280_pressure;Samples;Min_cycle;Max_cycle;Signal;HPM_P1;HPM_P2
2023/01/21 00:00:28;;;;;;;1.80;1.70;;;-1.00;98.20;;;;;;5007804;28;20904;-73
2023/01/21 00:02:55;;;;;;;1.90;1.80;;;-0.90;98.20;;;;;;5006390;28;20537;-72
2023/01/21 00:05:22;;;;;;;1.90;1.80;;;-0.90;98.20;;;;;;4995778;28;20493;-72
2023/01/21 00:07:49;;;;;;;2.13;1.93;;;-0.90;98.20;;;;;;5006099;28;20951;-71
2023/01/21 00:10:17;;;;;;;1.90;1.80;;;-0.90;98.20;;;;;;4999292;28;20846;-71
2023/01/21 00:12:44;;;;;;;2.20;2.00;;;-0.90;98.20;;;;;;5008801;28;20561;-72
2023/01/21 00:15:11;;;;;;;2.43;2.27;;;-0.90;98.20;;;;;;5008027;28;20500;-71
2023/01/21 00:17:42;;;;;;;1.90;1.80;;;-0.90;98.20;;;;;;5010446;28;20958;-71
2023/01/21 00:20:11;;;;;;;1.80;1.70;;;-0.80;98.20;;;;;;5005482;28;21045;-71
2023/01/21 00:22:38;;;;;;;1.97;1.83;;;-0.80;98.20;;;;;;5004918;28;20515;-71
2023/01/21 00:25:06;;;;;;;1.90;1.80;;;-0.80;98.20;;;;;;4995264;28;20477;-72
2023/01/21 00:27:33;;;;;;;1.80;1.70;;;-0.80;98.20;;;;;;5002473;28;20908;-73
2023/01/21 00:30:00;;;;;;;1.80;1.70;;;-0.80;98.20;;;;;;4998088;28;20606;-71
2023/01/21 00:32:27;;;;;;;1.80;1.70;;;-0.80;98.20;;;;;;5005786;28;20480;-73
2023/01/21 00:34:56;;;;;;;1.90;1.80;;;-0.80;98.20;;;;;;5004922;28;20870;-72
2023/01/21 00:37:24;;;;;;;2.10;1.90;;;-0.80;98.20;;;;;;5008100;28;20475;-73
2023/01/21 00:39:52;;;;;;;1.90;1.80;;;-0.80;98.20;;;;;;4998607;28;20474;-73
2023/01/21 00:42:19;;;;;;;1.90;1.80;;;-0.80;98.20;;;;;;5004968;28;20474;-71
2023/01/21 00:44:46;;;;;;;2.07;1.87;;;-0.80;98.20;;;;;;5006930;28;20480;-73
2023/01/21 00:47:13;;;;;;;1.80;1.70;;;-0.90;98.20;;;;;;4998417;28;20476;-71
2023/01/21 00:49:40;;;;;;;1.90;1.80;;;-0.90;98.20;;;;;;5004387;28;20464;-71
2023/01/21 00:52:08;;;;;;;1.80;1.70;;;-0.90;98.20;;;;;;4997331;28;20483;-73
2023/01/21 00:54:35;;;;;;;3.07;2.87;;;-0.90;98.20;;;;;;5006085;28;20492;-73
2023/01/21 00:57:02;;;;;;;1.80;1.70;;;-0.90;98.20;;;;;;4999680;28;20511;-72
2023/01/21 00:59:29;;;;;;;1.80;1.70;;;-0.90;98.20;;;;;;5007207;28;20465;-72
2023/01/21 01:01:56;;;;;;;1.80;1.70;;;-0.90;98.20;;;;;;4999695;28;20560;-71
2023/01/21 01:04:23;;;;;;;3.17;3.00;;;-0.90;98.20;;;;;;5003426;28;20499;-72
2023/01/21 01:06:50;;;;;;;1.80;1.70;;;-0.90;98.20;;;;;;4997697;28;20475;-72
2023/01/21 01:09:19;;;;;;;4.33;4.03;;;-0.90;98.20;;;;;;5010401;28;20465;-71
2023/01/21 01:11:46;;;;;;;1.90;1.80;;;-1.00;98.20;;;;;;4998912;28;20514;-71
2023/01/21 01:14:13;;;;;;;1.80;1.70;;;-1.00;98.20;;;;;;5011335;28;20785;-73
2023/01/21 01:16:40;;;;;;;1.80;1.70;;;-1.00;98.20;;;;;;4995354;28;20493;-72
2023/01/21 01:19:07;;;;;;;1.80;1.70;;;-1.00;98.20;;;;;;5001004;28;20468;-70
2023/01/21 01:21:34;;;;;;;1.90;1.80;;;-1.00;98.20;;;;;;4995100;28;20510;-72
2023/01/21 01:24:02;;;;;;;1.90;1.80;;;-1.10;98.20;;;;;;5016174;28;20563;-72
2023/01/21 01:26:30;;;;;;;1.90;1.80;;;-1.10;98.20;;;;;;4996064;28;20510;-74
2023/01/21 01:28:57;;;;;;;1.80;1.70;;;-1.10;98.20;;;;;;5008945;28;20468;-71
2023/01/21 01:31:24;;;;;;;1.80;1.70;;;-1.10;98.20;;;;;;4992151;28;20479;-71
2023/01/21 01:33:51;;;;;;;1.93;1.80;;;-1.10;98.20;;;;;;5005255;28;20985;-71
2023/01/21 01:36:22;;;;;;;1.80;1.70;;;-1.10;98.20;;;;;;4988870;28;20479;-71
2023/01/21 01:38:50;;;;;;;1.87;1.77;;;-1.00;98.20;;;;;;5003275;28;20786;-73
2023/01/21 01:41:18;;;;;;;1.70;1.60;;;-1.10;98.20;;;;;;4993754;28;20478;-72
2023/01/21 01:43:53;;;;;;;5.83;5.00;;;-1.10;98.20;;;;;;5017455;28;20483;-71
2023/01/21 01:46:22;;;;;;;1.80;1.70;;;-1.00;98.20;;;;;;4991897;28;20487;-72
2023/01/21 01:48:54;;;;;;;2.33;2.13;;;-1.10;98.20;;;;;;5010260;28;20838;-72
2023/01/21 01:51:25;;;;;;;1.80;1.70;;;-1.10;98.20;;;;;;4997087;28;20570;-73
2023/01/21 01:53:52;;;;;;;1.90;1.80;;;-1.10;98.20;;;;;;5007842;28;20480;-74
2023/01/21 01:56:19;;;;;;;1.80;1.70;;;-1.10;98.20;;;;;;4996780;28;21026;-73
2023/01/21 01:58:48;;;;;;;1.90;1.80;;;-1.10;98.20;;;;;;5008995;28;20464;-73
2023/01/21 02:01:16;;;;;;;1.80;1.70;;;-1.10;98.20;;;;;;4993508;28;20482;-72
2023/01/21 02:03:53;;;;;;;1.90;1.80;;;-1.10;98.20;;;;;;5016602;28;20857;-72
2023/01/21 02:06:20;;;;;;;1.80;1.70;;;-1.10;98.20;;;;;;4993339;28;20493;-71
2023/01/21 02:08:47;;;;;;;1.80;1.70;;;-1.10;98.20;;;;;;5008656;28;20460;-72
2023/01/21 02:11:16;;;;;;;1.90;1.80;;;-1.00;98.20;;;;;;4993084;28;20541;-72
2023/01/21 02:13:46;;;;;;;1.80;1.70;;;-1.00;98.20;;;;;;5021064;28;20476;-73
2023/01/21 02:16:35;;;;;;;1.80;1.70;;;-1.00;98.20;;;;;;4994703;28;21061;-72
2023/01/21 02:19:23;;;;;;;1.80;1.70;;;-1.00;98.20;;;;;;5001305;28;20491;-74
2023/01/21 02:22:08;;;;;;;1.80;1.70;;;-1.00;98.20;;;;;;5000912;28;20482;-71
2023/01/21 02:25:15;;;;;;;1.90;1.80;;;-1.00;98.20;;;;;;5003895;28;20527;-73
2023/01/21 02:27:50;;;;;;;2.00;1.90;;;-1.00;98.20;;;;;;5006974;28;20480;-72
2023/01/21 02:30:39;;;;;;;1.90;1.80;;;-1.00;98.20;;;;;;4994537;28;20483;-72
2023/01/21 02:33:26;;;;;;;1.80;1.70;;;-1.00;98.20;;;;;;5005011;28;20491;-71
2023/01/21 02:36:04;;;;;;;1.80;1.70;;;-1.10;98.20;;;;;;4990774;28;20490;-72
2023/01/21 02:38:39;;;;;;;1.87;1.77;;;-1.10;98.20;;;;;;5013197;28;20523;-72
2023/01/21 02:41:16;;;;;;;1.90;1.80;;;-1.10;98.20;;;;;;4996038;28;20602;-73
2023/01/21 02:43:51;;;;;;;2.17;1.97;;;-1.10;98.20;;;;;;5023029;28;21086;-72
2023/01/21 02:46:22;;;;;;;1.80;1.70;;;-1.10;98.20;;;;;;4991796;28;20897;-71
2023/01/21 02:48:58;;;;;;;1.83;1.73;;;-1.10;98.20;;;;;;4999621;28;20471;-72
2023/01/21 02:51:25;;;;;;;1.80;1.70;;;-1.10;98.20;;;;;;5003992;28;20487;-73
2023/01/21 02:53:52;;;;;;;1.90;1.80;;;-1.10;98.20;;;;;;5024521;28;20476;-72
2023/01/21 02:56:23;;;;;;;1.80;1.70;;;-1.10;98.20;;;;;;5001595;28;20829;-71
2023/01/21 02:58:53;;;;;;;1.83;1.73;;;-1.10;98.20;;;;;;5016404;28;20840;-70
2023/01/21 03:01:38;;;;;;;1.80;1.70;;;-1.10;98.20;;;;;;5003607;28;21211;-71
2023/01/21 03:04:31;;;;;;;1.80;1.70;;;-1.20;98.20;;;;;;5021596;28;20519;-72
2023/01/21 03:07:04;;;;;;;1.80;1.70;;;-1.20;98.20;;;;;;5009058;28;20538;-72
2023/01/21 03:09:32;;;;;;;1.80;1.70;;;-1.20;98.20;;;;;;5019340;28;20484;-72
2023/01/21 03:12:11;;;;;;;1.90;1.80;;;-1.20;98.20;;;;;;5014193;28;21183;-72
2023/01/21 03:17:36;;;;;;;1.80;1.70;;;-1.20;98.20;;;;;;5009852;28;20510;-71
2023/01/21 03:20:10;;;;;;;1.90;1.80;;;-1.30;98.20;;;;;;5009157;28;20464;-73
2023/01/21 03:22:39;;;;;;;1.90;1.80;;;-1.30;98.20;;;;;;5012643;28;20866;-71
2023/01/21 03:25:09;;;;;;;1.90;1.80;;;-1.30;98.20;;;;;;5009847;28;20484;-71
2023/01/21 03:27:39;;;;;;;1.80;1.70;;;-1.30;98.20;;;;;;5010810;28;20866;-71
2023/01/21 03:30:12;;;;;;;1.80;1.70;;;-1.30;98.20;;;;;;5008772;28;20464;-72
2023/01/21 03:32:40;;;;;;;1.97;1.83;;;-1.30;98.20;;;;;;5012518;28;20570;-72
2023/01/21 03:35:10;;;;;;;1.90;1.80;;;-1.40;98.20;;;;;;5009893;28;20480;-73
2023/01/21 03:37:43;;;;;;;1.90;1.80;;;-1.40;98.20;;;;;;5022276;28;20498;-73
2023/01/21 03:40:20;;;;;;;1.90;1.80;;;-1.40;98.20;;;;;;5009103;28;20460;-72
2023/01/21 03:42:49;;;;;;;1.90;1.80;;;-1.40;98.20;;;;;;5007467;28;20483;-73
2023/01/21 03:45:18;;;;;;;1.90;1.80;;;-1.50;98.20;;;;;;5008656;28;20508;-72
2023/01/21 03:47:54;;;;;;;2.17;2.00;;;-1.50;98.20;;;;;;5011287;28;20690;-72
2023/01/21 03:50:27;;;;;;;1.90;1.80;;;-1.50;98.20;;;;;;5008685;28;20460;-72
2023/01/21 03:52:54;;;;;;;1.97;1.87;;;-1.60;98.20;;;;;;5012047;28;20483;-73
2023/01/21 03:55:22;;;;;;;1.90;1.80;;;-1.50;98.20;;;;;;5010816;28;20480;-73
2023/01/21 03:57:49;;;;;;;1.90;1.80;;;-1.50;98.20;;;;;;5010770;28;21004;-73
2023/01/21 04:00:16;;;;;;;1.90;1.80;;;-1.50;98.20;;;;;;5014966;28;20475;-73
2023/01/21 04:02:44;;;;;;;1.90;1.80;;;-1.50;98.20;;;;;;5012854;28;20554;-73
2023/01/21 04:05:13;;;;;;;2.00;1.90;;;-1.50;98.20;;;;;;5001877;28;21025;-71
2023/01/21 04:07:41;;;;;;;1.80;1.70;;;-1.50;98.20;;;;;;5011414;28;20617;-73
2023/01/21 04:10:09;;;;;;;2.63;2.43;;;-1.50;98.20;;;;;;5010259;28;20515;-71
2023/01/21 04:12:36;;;;;;;1.90;1.80;;;-1.50;98.20;;;;;;5011258;28;20510;-72
2023/01/21 04:15:04;;;;;;;1.93;1.83;;;-1.50;98.20;;;;;;5009023;28;21019;-74
2023/01/21 04:17:31;;;;;;;2.63;2.43;;;-1.50;98.20;;;;;;5009979;28;20775;-72
2023/01/21 04:19:58;;;;;;;1.90;1.80;;;-1.50;98.20;;;;;;5009655;28;20574;-70
2023/01/21 04:22:25;;;;;;;1.80;1.70;;;-1.50;98.20;;;;;;5009943;28;21011;-72
2023/01/21 04:24:53;;;;;;;1.93;1.83;;;-1.50;98.20;;;;;;5012139;28;20488;-72
2023/01/21 04:27:20;;;;;;;2.20;2.00;;;-1.50;98.20;;;;;;5008159;28;21127;-72
2023/01/21 04:29:47;;;;;;;2.43;2.23;;;-1.50;98.20;;;;;;5010761;28;20958;-73
2023/01/21 04:32:14;;;;;;;1.97;1.83;;;-1.50;98.20;;;;;;5009441;28;20520;-72
2023/01/21 04:34:41;;;;;;;1.97;1.83;;;-1.50;98.20;;;;;;5012540;28;20531;-73
2023/01/21 04:37:08;;;;;;;3.17;2.97;;;-1.50;98.20;;;;;;5005559;28;20533;-70
2023/01/21 04:39:35;;;;;;;1.90;1.80;;;-1.50;98.20;;;;;;5006556;28;20576;-71
2023/01/21 04:42:04;;;;;;;1.90;1.80;;;-1.50;98.20;;;;;;5005545;28;20626;-72
2023/01/21 04:44:31;;;;;;;1.80;1.70;;;-1.40;98.20;;;;;;5012433;28;20563;-71
2023/01/21 04:46:58;;;;;;;1.90;1.80;;;-1.40;98.20;;;;;;4995772;28;20480;-72
2023/01/21 04:49:24;;;;;;;1.90;1.80;;;-1.40;98.20;;;;;;5005445;28;20468;-73
2023/01/21 04:51:51;;;;;;;1.90;1.80;;;-1.40;98.20;;;;;;5004403;28;21027;-71
2023/01/21 04:54:18;;;;;;;2.00;1.90;;;-1.40;98.20;;;;;;5014556;28;20483;-72
2023/01/21 04:56:46;;;;;;;1.87;1.73;;;-1.40;98.20;;;;;;5002652;28;20494;-71
2023/01/21 04:59:14;;;;;;;1.80;1.70;;;-1.40;98.20;;;;;;5014743;28;20599;-73
2023/01/21 05:01:41;;;;;;;1.80;1.70;;;-1.40;98.20;;;;;;5003629;28;20483;-72
2023/01/21 05:04:08;;;;;;;2.00;1.90;;;-1.40;98.20;;;;;;5014778;28;20498;-73
2023/01/21 05:06:35;;;;;;;1.87;1.77;;;-1.50;98.20;;;;;;5001824;28;20558;-73
2023/01/21 05:09:02;;;;;;;1.80;1.70;;;-1.50;98.20;;;;;;5014527;28;20470;-72
2023/01/21 05:11:29;;;;;;;1.80;1.70;;;-1.50;98.20;;;;;;4995865;28;20484;-73
2023/01/21 05:13:56;;;;;;;1.90;1.80;;;-1.50;98.20;;;;;;5005334;28;20846;-72
2023/01/21 05:16:25;;;;;;;1.90;1.80;;;-1.50;98.20;;;;;;4995750;28;20781;-73
2023/01/21 05:18:52;;;;;;;4.33;4.03;;;-1.50;98.20;;;;;;5012393;28;20487;-72
2023/01/21 05:21:19;;;;;;;1.80;1.70;;;-1.50;98.20;;;;;;5005413;28;20687;-73
2023/01/21 05:23:46;;;;;;;1.90;1.80;;;-1.50;98.20;;;;;;5005702;28;20480;-72
2023/01/21 05:26:13;;;;;;;1.87;1.77;;;-1.60;98.20;;;;;;5009767;28;20484;-73
2023/01/21 05:28:40;;;;;;;1.80;1.70;;;-1.60;98.20;;;;;;5013758;28;20546;-73
2023/01/21 05:31:07;;;;;;;1.80;1.70;;;-1.60;98.20;;;;;;5016080;28;20517;-72
2023/01/21 05:33:36;;;;;;;1.80;1.70;;;-1.60;98.20;;;;;;5017705;28;20482;-73
2023/01/21 05:36:04;;;;;;;1.70;1.60;;;-1.60;98.20;;;;;;5017319;28;20468;-72
2023/01/21 05:38:31;;;;;;;1.90;1.80;;;-1.70;98.20;;;;;;5023680;28;20927;-72
2023/01/21 05:41:00;;;;;;;1.80;1.70;;;-1.60;98.20;;;;;;5015455;28;20981;-72
2023/01/21 05:43:27;;;;;;;1.80;1.70;;;-1.70;98.20;;;;;;5011019;28;20464;-73
2023/01/21 05:45:54;;;;;;;1.80;1.70;;;-1.70;98.20;;;;;;5007858;28;20466;-70
2023/01/21 05:48:21;;;;;;;12.63;5.43;;;-1.70;98.20;;;;;;5013219;28;20878;-74
2023/01/21 05:50:50;;;;;;;1.80;1.70;;;-1.70;98.20;;;;;;5017501;28;20463;-73
2023/01/21 05:53:17;;;;;;;1.87;1.77;;;-1.80;98.20;;;;;;5029092;28;20463;-73
2023/01/21 05:55:44;;;;;;;2.10;1.97;;;-1.70;98.20;;;;;;5028225;28;20495;-72
2023/01/21 05:58:11;;;;;;;1.80;1.70;;;-1.80;98.20;;;;;;4993822;28;20805;-74
2023/01/21 06:00:40;;;;;;;1.90;1.80;;;-1.80;98.20;;;;;;5000498;28;20587;-73
2023/01/21 06:03:07;;;;;;;2.00;1.90;;;-1.80;98.20;;;;;;5015316;28;20498;-71
2023/01/21 06:05:35;;;;;;;1.90;1.80;;;-1.80;98.20;;;;;;5019414;28;20469;-71
2023/01/21 06:08:03;;;;;;;1.90;1.80;;;-1.90;98.20;;;;;;5012142;28;20475;-73
2023/01/21 06:10:30;;;;;;;1.80;1.70;;;-1.90;98.20;;;;;;5025318;28;20478;-73
2023/01/21 06:12:57;;;;;;;2.10;2.00;;;-1.90;98.20;;;;;;4998480;28;20480;-73
2023/01/21 06:15:24;;;;;;;1.90;1.80;;;-1.90;98.20;;;;;;5019002;28;20507;-73
2023/01/21 06:17:51;;;;;;;1.80;1.70;;;-1.90;98.20;;;;;;4999360;28;20522;-73
2023/01/21 06:20:18;;;;;;;1.90;1.80;;;-1.90;98.20;;;;;;5019323;28;20463;-73
2023/01/21 06:22:45;;;;;;;1.90;1.80;;;-1.90;98.20;;;;;;4986880;28;21034;-71
2023/01/21 06:25:14;;;;;;;2.00;1.90;;;-1.90;98.20;;;;;;5024135;28;20478;-73
2023/01/21 06:27:41;;;;;;;1.90;1.80;;;-1.90;98.20;;;;;;5015972;28;20537;-72
2023/01/21 06:30:09;;;;;;;1.90;1.80;;;-1.90;98.20;;;;;;5014895;28;20464;-73
2023/01/21 06:32:37;;;;;;;1.80;1.70;;;-1.90;98.20;;;;;;4998036;28;20496;-71
2023/01/21 06:35:05;;;;;;;1.80;1.70;;;-1.90;98.20;;;;;;5017814;28;20494;-71
2023/01/21 06:37:32;;;;;;;1.80;1.70;;;-2.00;98.20;;;;;;4999882;28;20488;-72
2023/01/21 06:39:59;;;;;;;2.10;2.00;;;-2.00;98.20;;;;;;5013737;28;20472;-73
2023/01/21 06:42:28;;;;;;;1.97;1.87;;;-2.00;98.20;;;;;;5010678;28;20487;-72
2023/01/21 06:44:55;;;;;;;1.90;1.80;;;-2.00;98.20;;;;;;5010485;28;20480;-72
2023/01/21 06:47:22;;;;;;;1.80;1.70;;;-2.00;98.20;;;;;;5001348;28;20563;-72
2023/01/21 06:49:49;;;;;;;2.73;2.53;;;-2.00;98.20;;;;;;5010372;28;20488;-72
2023/01/21 06:52:16;;;;;;;1.80;1.70;;;-2.00;98.20;;;;;;5002710;28;20519;-73
2023/01/21 06:54:43;;;;;;;1.90;1.80;;;-1.90;98.20;;;;;;5018301;28;20570;-71
2023/01/21 06:57:10;;;;;;;1.90;1.80;;;-1.90;98.20;;;;;;5011872;28;20626;-73
2023/01/21 06:59:39;;;;;;;1.80;1.70;;;-1.90;98.20;;;;;;5014234;28;20511;-73
2023/01/21 07:02:07;;;;;;;1.93;1.83;;;-1.90;98.20;;;;;;5015429;28;21134;-76
2023/01/21 07:04:34;;;;;;;1.80;1.70;;;-1.90;98.20;;;;;;5020409;28;21169;-72
2023/01/21 07:07:01;;;;;;;2.00;1.90;;;-1.90;98.20;;;;;;5005057;28;20491;-72
2023/01/21 07:09:29;;;;;;;1.80;1.70;;;-1.90;98.20;;;;;;5019898;28;20520;-72
2023/01/21 07:11:57;;;;;;;1.93;1.83;;;-1.90;98.20;;;;;;4998009;28;20480;-72
2023/01/21 07:14:24;;;;;;;1.87;1.77;;;-1.90;98.20;;;;;;5003772;28;20918;-71
2023/01/21 07:16:53;;;;;;;2.20;2.00;;;-1.90;98.20;;;;;;5003614;28;20493;-72
2023/01/21 07:19:21;;;;;;;1.83;1.73;;;-1.90;98.20;;;;;;5012866;28;20460;-72
2023/01/21 07:21:48;;;;;;;1.80;1.70;;;-1.90;98.20;;;;;;5012118;28;20575;-70
2023/01/21 07:24:15;;;;;;;1.90;1.80;;;-1.90;98.20;;;;;;5022873;28;20583;-70
2023/01/21 07:26:42;;;;;;;1.90;1.80;;;-1.90;98.20;;;;;;5006637;28;20491;-71
2023/01/21 07:29:10;;;;;;;1.80;1.70;;;-1.90;98.20;;;;;;5021434;28;20607;-70
2023/01/21 07:31:37;;;;;;;1.90;1.80;;;-1.90;98.20;;;;;;5009893;28;20491;-71
2023/01/21 07:34:05;;;;;;;1.90;1.80;;;-1.90;98.20;;;;;;5015867;28;21234;-71
2023/01/21 07:36:32;;;;;;;1.83;1.73;;;-1.90;98.20;;;;;;5005640;28;20490;-71
2023/01/21 07:39:00;;;;;;;3.03;2.83;;;-1.90;98.20;;;;;;5020113;28;20494;-70
2023/01/21 07:41:27;;;;;;;1.90;1.80;;;-1.90;98.20;;;;;;5012697;28;20494;-70
2023/01/21 07:43:55;;;;;;;1.87;1.77;;;-1.90;98.20;;;;;;5024083;28;20588;-70
2023/01/21 07:46:23;;;;;;;1.80;1.70;;;-1.90;98.20;;;;;;4998584;28;20507;-70
2023/01/21 07:48:51;;;;;;;1.80;1.70;;;-1.90;98.20;;;;;;5001699;28;20470;-70
2023/01/21 07:51:20;;;;;;;1.87;1.77;;;-1.90;98.20;;;;;;5003504;28;20479;-71
2023/01/21 07:53:48;;;;;;;1.93;1.83;;;-1.90;98.20;;;;;;5018455;28;20487;-71
2023/01/21 07:56:16;;;;;;;1.80;1.70;;;-1.90;98.20;;;;;;5008839;28;20715;-72
2023/01/21 07:58:45;;;;;;;1.80;1.70;;;-1.90;98.20;;;;;;5023022;28;20719;-71
2023/01/21 08:01:13;;;;;;;1.83;1.73;;;-1.80;98.20;;;;;;5007695;28;20853;-71
2023/01/21 08:03:40;;;;;;;2.00;1.90;;;-1.80;98.20;;;;;;5019280;28;20527;-72
2023/01/21 08:06:07;;;;;;;1.80;1.70;;;-1.70;98.20;;;;;;5000111;28;20950;-71
2023/01/21 08:08:36;;;;;;;1.80;1.70;;;-1.70;98.20;;;;;;5003058;28;20463;-71
2023/01/21 08:11:03;;;;;;;2.23;2.07;;;-1.70;98.20;;;;;;5000288;28;20543;-71
2023/01/21 08:13:30;;;;;;;1.90;1.80;;;-1.60;98.20;;;;;;5002517;28;20500;-71
2023/01/21 08:15:58;;;;;;;1.80;1.70;;;-1.60;98.20;;;;;;4994811;28;20468;-71
2023/01/21 08:18:25;;;;;;;1.80;1.70;;;-1.50;98.20;;;;;;5005419;28;20573;-71
2023/01/21 08:20:54;;;;;;;2.20;2.00;;;-1.50;98.20;;;;;;5010800;28;20451;-71
2023/01/21 08:23:21;;;;;;;2.50;2.30;;;-1.40;98.20;;;;;;5006532;28;20464;-71
2023/01/21 08:25:50;;;;;;;1.90;1.80;;;-1.40;98.20;;;;;;5017561;28;20509;-71
2023/01/21 08:28:17;;;;;;;1.90;1.80;;;-1.30;98.20;;;;;;5022124;28;20473;-71
2023/01/21 08:30:48;;;;;;;1.90;1.80;;;-1.30;98.20;;;;;;5022215;28;20534;-70
2023/01/21 08:33:16;;;;;;;1.83;1.73;;;-1.20;98.20;;;;;;4995619;28;20467;-71
2023/01/21 08:35:43;;;;;;;10.03;9.43;;;-1.20;98.20;;;;;;5014814;28;20486;-71
2023/01/21 08:38:12;;;;;;;1.80;1.70;;;-1.10;98.20;;;;;;4996542;28;20543;-71
2023/01/21 08:40:39;;;;;;;1.80;1.70;;;-1.10;98.20;;;;;;5017259;28;20463;-70
2023/01/21 08:43:09;;;;;;;1.70;1.60;;;-1.10;98.20;;;;;;5012074;28;20493;-71
2023/01/21 08:45:37;;;;;;;1.70;1.60;;;-1.00;98.20;;;;;;5013683;28;21028;-71
2023/01/21 08:48:05;;;;;;;2.00;1.90;;;-1.00;98.20;;;;;;4979982;28;21035;-71
2023/01/21 08:50:32;;;;;;;1.80;1.70;;;-1.00;98.20;;;;;;5010735;28;20514;-71
2023/01/21 08:52:59;;;;;;;1.80;1.70;;;-0.90;98.20;;;;;;4993231;28;20479;-71
2023/01/21 08:55:27;;;;;;;1.80;1.70;;;-0.90;98.20;;;;;;5018383;28;20482;-71
2023/01/21 08:57:54;;;;;;;1.90;1.80;;;-0.90;98.20;;;;;;4994283;28;20488;-71
2023/01/21 09:00:23;;;;;;;1.80;1.70;;;-0.80;98.20;;;;;;5010726;28;20491;-71
2023/01/21 09:02:52;;;;;;;1.77;1.67;;;-0.80;98.20;;;;;;5012140;28;20488;-71
2023/01/21 09:05:20;;;;;;;1.80;1.70;;;-0.70;98.20;;;;;;5019070;28;20502;-72
2023/01/21 09:07:50;;;;;;;1.80;1.70;;;-0.70;98.20;;;;;;5010501;28;20521;-72
2023/01/21 09:10:59;;;;;;;1.70;1.60;;;-0.60;98.20;;;;;;5004049;28;20521;-71
2023/01/21 09:13:05;;;;;;;1.93;1.83;;;-0.60;98.20;;;;;;5006594;28;20854;-72
2023/01/21 09:15:38;;;;;;;1.80;1.70;;;-0.50;98.20;;;;;;5012936;28;20479;-72
2023/01/21 09:18:05;;;;;;;1.70;1.60;;;-0.40;98.20;;;;;;5005858;28;20517;-72
2023/01/21 09:20:32;;;;;;;1.70;1.60;;;-0.40;98.20;;;;;;5002773;28;21008;-72
2023/01/21 09:22:59;;;;;;;2.40;2.20;;;-0.30;98.20;;;;;;4992695;28;20487;-72
2023/01/21 09:25:27;;;;;;;2.00;1.90;;;-0.30;98.20;;;;;;5010488;28;20483;-73
2023/01/21 09:27:54;;;;;;;1.70;1.60;;;-0.20;98.20;;;;;;5001954;28;20615;-72
2023/01/21 09:30:25;;;;;;;1.70;1.60;;;-0.20;98.20;;;;;;5013223;28;20462;-73
2023/01/21 09:33:02;;;;;;;1.70;1.60;;;-0.10;98.20;;;;;;4992742;28;20479;-72
2023/01/21 09:35:30;;;;;;;1.80;1.70;;;-0.10;98.20;;;;;;5012112;28;20881;-73
2023/01/21 09:38:01;;;;;;;1.70;1.60;;;0.00;98.20;;;;;;5011696;28;20891;-72
2023/01/21 09:40:32;;;;;;;1.70;1.60;;;0.00;98.20;;;;;;5016303;28;20890;-72
2023/01/21 09:43:09;;;;;;;1.70;1.60;;;0.10;98.20;;;;;;5009623;28;20605;-72
2023/01/21 09:45:37;;;;;;;1.70;1.60;;;0.10;98.20;;;;;;5003704;28;20491;-73
2023/01/21 09:48:11;;;;;;;1.70;1.60;;;0.20;98.20;;;;;;4980901;28;20476;-72
2023/01/21 09:50:40;;;;;;;1.70;1.60;;;0.20;98.20;;;;;;5010518;28;20460;-72
2023/01/21 09:53:21;;;;;;;1.80;1.70;;;0.20;98.20;;;;;;5008042;28;21042;-72
2023/01/21 09:55:51;;;;;;;1.70;1.60;;;0.30;98.20;;;;;;5009365;28;20622;-71
2023/01/21 09:58:26;;;;;;;1.70;1.60;;;0.30;98.20;;;;;;4990708;28;20479;-71
2023/01/21 10:01:04;;;;;;;1.70;1.60;;;0.40;98.20;;;;;;5002536;28;21016;-72
2023/01/21 10:03:41;;;;;;;1.70;1.53;;;0.40;98.20;;;;;;5001861;28;20495;-71
2023/01/21 10:06:19;;;;;;;2.10;1.90;;;0.40;98.20;;;;;;4994869;28;20478;-71
2023/01/21 10:09:12;;;;;;;1.73;1.63;;;0.50;98.20;;;;;;5006511;28;20840;-72
2023/01/21 10:11:53;;;;;;;1.70;1.60;;;0.50;98.20;;;;;;4993831;28;20484;-71
2023/01/21 10:14:33;;;;;;;6.80;6.40;;;0.60;98.20;;;;;;5001644;28;20486;-71
2023/01/21 10:17:06;;;;;;;1.70;1.60;;;0.60;98.20;;;;;;5004109;28;21030;-71
2023/01/21 10:19:39;;;;;;;1.70;1.60;;;0.60;98.20;;;;;;5020219;28;20498;-71
2023/01/21 10:22:17;;;;;;;1.70;1.50;;;0.60;98.20;;;;;;5008943;28;21042;-72
2023/01/21 10:24:57;;;;;;;1.70;1.50;;;0.60;98.20;;;;;;5013351;28;20909;-76
2023/01/21 10:27:26;;;;;;;1.70;1.50;;;0.70;98.20;;;;;;5007989;28;20478;-72
2023/01/21 10:29:59;;;;;;;2.43;2.23;;;0.70;98.20;;;;;;5009931;28;21122;-72
2023/01/21 10:32:28;;;;;;;1.70;1.50;;;0.70;98.20;;;;;;4987854;28;20496;-72
2023/01/21 10:34:57;;;;;;;1.77;1.67;;;0.70;98.20;;;;;;5003632;28;20483;-72
2023/01/21 10:37:35;;;;;;;1.70;1.60;;;0.70;98.20;;;;;;5006399;28;20487;-72
2023/01/21 10:40:10;;;;;;;1.70;1.50;;;0.70;98.20;;;;;;5024613;28;20482;-72
2023/01/21 10:42:50;;;;;;;1.70;1.50;;;0.70;98.20;;;;;;4995767;28;20488;-71
2023/01/21 10:45:30;;;;;;;1.70;1.50;;;0.80;98.20;;;;;;5008222;28;20975;-70
2023/01/21 10:48:05;;;;;;;3.43;3.23;;;0.80;98.20;;;;;;4992291;28;20487;-69
2023/01/21 10:50:44;;;;;;;2.00;1.80;;;0.80;98.20;;;;;;5011466;28;20499;-70
2023/01/21 10:53:21;;;;;;;1.70;1.60;;;0.90;98.20;;;;;;5009145;28;20567;-70
2023/01/21 10:56:01;;;;;;;1.70;1.60;;;0.90;98.20;;;;;;5004278;28;20827;-72
2023/01/21 10:58:33;;;;;;;1.67;1.50;;;1.00;98.20;;;;;;5015683;28;20973;-70
2023/01/21 11:01:03;;;;;;;1.70;1.50;;;1.00;98.20;;;;;;4999143;28;20899;-70
2023/01/21 11:03:37;;;;;;;1.70;1.50;;;1.00;98.20;;;;;;5019097;28;21119;-71
2023/01/21 11:06:09;;;;;;;1.70;1.60;;;1.00;98.20;;;;;;4998230;28;20495;-70
2023/01/21 11:08:38;;;;;;;1.63;1.47;;;1.00;98.20;;;;;;5019727;28;20468;-71
2023/01/21 11:11:08;;;;;;;1.70;1.60;;;1.10;98.20;;;;;;4998193;28;20499;-71
2023/01/21 11:13:35;;;;;;;1.70;1.60;;;1.10;98.20;;;;;;5016814;28;20480;-71
2023/01/21 11:16:03;;;;;;;1.70;1.60;;;1.10;98.20;;;;;;4994946;28;20949;-70
2023/01/21 11:18:34;;;;;;;1.70;1.60;;;1.20;98.20;;;;;;5003098;28;21102;-71
2023/01/21 11:21:16;;;;;;;1.70;1.50;;;1.20;98.20;;;;;;4996076;28;20491;-71
2023/01/21 11:23:53;;;;;;;1.70;1.53;;;1.30;98.20;;;;;;5003989;28;20527;-71
2023/01/21 11:26:24;;;;;;;1.70;1.50;;;1.30;98.20;;;;;;4999314;28;20495;-72
2023/01/21 11:29:06;;;;;;;1.70;1.50;;;1.20;98.20;;;;;;5013252;28;20460;-71
2023/01/21 11:31:34;;;;;;;1.70;1.50;;;1.20;98.20;;;;;;4993229;28;20495;-71
2023/01/21 11:34:05;;;;;;;1.70;1.50;;;1.20;98.20;;;;;;5005269;28;20824;-71
2023/01/21 11:36:34;;;;;;;1.70;1.53;;;1.30;98.20;;;;;;4992788;28;20586;-71
2023/01/21 11:39:04;;;;;;;1.70;1.50;;;1.30;98.20;;;;;;5004764;28;20759;-72
2023/01/21 11:41:31;;;;;;;1.70;1.50;;;1.30;98.20;;;;;;5002055;28;20492;-71
2023/01/21 11:44:10;;;;;;;1.70;1.50;;;1.30;98.20;;;;;;4998064;28;21338;-71
2023/01/21 11:46:39;;;;;;;1.70;1.50;;;1.30;98.20;;;;;;5000001;28;20533;-72
2023/01/21 11:49:25;;;;;;;1.83;1.73;;;1.40;98.20;;;;;;5012195;28;20470;-72
2023/01/21 11:52:16;;;;;;;1.80;1.70;;;1.40;98.20;;;;;;5004864;28;20576;-71
2023/01/21 11:54:44;;;;;;;1.70;1.60;;;1.40;98.20;;;;;;5014227;28;20524;-71
2023/01/21 11:57:27;;;;;;;1.63;1.50;;;1.50;98.20;;;;;;5005538;28;20478;-71
2023/01/21 11:59:59;;;;;;;1.80;1.70;;;1.60;98.20;;;;;;5010058;28;20486;-72
2023/01/21 12:02:31;;;;;;;1.70;1.50;;;1.60;98.20;;;;;;4985940;28;20582;-72
2023/01/21 12:05:03;;;;;;;1.70;1.50;;;1.70;98.20;;;;;;5009058;28;20599;-72
2023/01/21 12:07:36;;;;;;;1.70;1.60;;;1.80;98.20;;;;;;5002946;28;20533;-73
2023/01/21 12:10:21;;;;;;;1.70;1.60;;;1.90;98.20;;;;;;4999911;28;20575;-73
2023/01/21 12:13:04;;;;;;;1.70;1.50;;;1.90;98.20;;;;;;4999045;28;20584;-73
2023/01/21 12:15:46;;;;;;;1.67;1.50;;;2.00;98.20;;;;;;5003765;28;20502;-74
2023/01/21 12:18:26;;;;;;;1.80;1.70;;;2.10;98.20;;;;;;4989886;28;20480;-72
2023/01/21 12:21:03;;;;;;;1.63;1.40;;;2.20;98.20;;;;;;4998275;28;20894;-73
2023/01/21 12:23:55;;;;;;;1.70;1.60;;;2.20;98.20;;;;;;5012161;28;20930;-73
2023/01/21 12:26:37;;;;;;;1.70;1.60;;;2.30;98.20;;;;;;5001535;28;21038;-73
2023/01/21 12:29:22;;;;;;;1.90;1.80;;;2.40;98.20;;;;;;5007107;28;20791;-72
2023/01/21 12:31:58;;;;;;;1.60;1.40;;;2.40;98.20;;;;;;4997057;28;20515;-73
2023/01/21 12:34:30;;;;;;;1.70;1.47;;;2.40;98.20;;;;;;5011168;28;20491;-73
2023/01/21 12:37:04;;;;;;;1.67;1.40;;;2.40;98.20;;;;;;4993018;28;20489;-72
2023/01/21 12:39:39;;;;;;;1.70;1.60;;;2.40;98.20;;;;;;5003196;28;20492;-73
2023/01/21 12:42:15;;;;;;;1.70;1.40;;;2.40;98.20;;;;;;5001326;28;21149;-72
2023/01/21 12:44:51;;;;;;;1.70;1.50;;;2.40;98.20;;;;;;5003290;28;20645;-73
2023/01/21 12:47:31;;;;;;;1.70;1.60;;;2.50;98.20;;;;;;5001819;28;20485;-73
2023/01/21 12:50:23;;;;;;;1.87;1.67;;;2.50;98.20;;;;;;5004227;28;20543;-72
2023/01/21 12:53:07;;;;;;;1.70;1.50;;;2.50;98.20;;;;;;5002166;28;20478;-72
2023/01/21 12:56:08;;;;;;;4.60;4.23;;;2.40;98.20;;;;;;4998876;28;20874;-72
2023/01/21 12:58:45;;;;;;;1.70;1.50;;;2.40;98.20;;;;;;4986718;28;20486;-73
2023/01/21 13:01:18;;;;;;;2.13;1.93;;;2.30;98.20;;;;;;4991750;28;20480;-72
2023/01/21 13:03:57;;;;;;;1.70;1.53;;;2.30;98.20;;;;;;4994307;28;20566;-72
2023/01/21 13:06:36;;;;;;;1.83;1.63;;;2.30;98.20;;;;;;4995988;28;20886;-72
2023/01/21 13:09:13;;;;;;;1.67;1.50;;;2.30;98.20;;;;;;5012772;28;21107;-73
2023/01/21 13:11:51;;;;;;;1.60;1.40;;;2.40;98.20;;;;;;4996141;28;20478;-73